createdAt,value
2018-07-23T00:01:04.075Z,20.30
2018-07-23T00:03:31.869Z,20.30
2018-07-23T00:05:59.678Z,20.30
2018-07-23T00:08:27.556Z,20.30
2018-07-23T00:10:55.425Z,20.30
2018-07-23T00:13:24.237Z,20.30
2018-07-23T00:15:52.044Z,20.20
2018-07-23T00:18:20.924Z,20.20
2018-07-23T00:20:48.746Z,20.10
2018-07-23T00:23:16.521Z,20.10
2018-07-23T00:25:44.301Z,20.20
2018-07-23T00:28:12.149Z,20.30
2018-07-23T00:30:39.944Z,20.30
2018-07-23T00:33:07.806Z,20.20
2018-07-23T00:35:35.586Z,20.20
2018-07-23T00:38:03.447Z,20.20
2018-07-23T00:40:31.259Z,20.20
2018-07-23T00:42:59.046Z,20.20
2018-07-23T00:45:26.920Z,20.20
2018-07-23T00:47:54.645Z,20.40
2018-07-23T00:50:29.518Z,20.50
2018-07-23T00:52:57.331Z,20.50
2018-07-23T00:55:25.164Z,20.50
2018-07-23T00:57:53.242Z,20.50
2018-07-23T01:00:21.174Z,20.70
2018-07-23T01:02:48.993Z,20.80
2018-07-23T01:05:17.818Z,20.80
2018-07-23T01:07:45.613Z,20.70
2018-07-23T01:10:13.436Z,20.70
2018-07-23T01:12:41.262Z,20.80
2018-07-23T01:15:09.154Z,20.90
2018-07-23T01:17:37.000Z,20.90
2018-07-23T01:20:04.898Z,20.80
2018-07-23T01:22:32.793Z,20.80
2018-07-23T01:25:00.604Z,20.80
2018-07-23T01:27:29.535Z,20.70
2018-07-23T01:29:57.315Z,20.80
2018-07-23T01:32:25.161Z,20.80
2018-07-23T01:34:53.015Z,20.80
2018-07-23T01:37:21.865Z,20.80
2018-07-23T01:39:49.731Z,20.80
2018-07-23T01:42:17.550Z,20.80
2018-07-23T01:44:45.319Z,20.70
2018-07-23T01:47:13.801Z,20.80
2018-07-23T01:49:41.672Z,20.80
2018-07-23T01:54:35.274Z,20.80
2018-07-23T01:57:03.130Z,20.80
2018-07-23T01:59:30.919Z,20.80
2018-07-23T02:01:58.861Z,20.80
2018-07-23T02:04:26.736Z,20.70
2018-07-23T02:06:54.555Z,20.70
2018-07-23T02:09:22.428Z,20.70
2018-07-23T02:11:50.251Z,20.70
2018-07-23T02:14:18.185Z,20.70
2018-07-23T02:16:46.066Z,20.70
2018-07-23T02:19:13.889Z,20.60
2018-07-23T02:21:41.714Z,20.60
2018-07-23T02:24:09.572Z,20.60
2018-07-23T02:26:37.386Z,20.50
2018-07-23T02:29:05.199Z,20.50
2018-07-23T02:31:33.132Z,20.50
2018-07-23T02:34:00.938Z,20.50
2018-07-23T02:36:28.741Z,20.60
2018-07-23T02:38:57.563Z,20.60
2018-07-23T02:41:25.450Z,20.60
2018-07-23T02:43:53.254Z,20.60
2018-07-23T02:46:21.089Z,20.60
2018-07-23T02:48:48.935Z,20.60
2018-07-23T02:51:16.747Z,20.60
2018-07-23T02:54:10.626Z,20.60
2018-07-23T02:56:38.522Z,20.60
2018-07-23T02:59:06.346Z,20.60
2018-07-23T03:01:34.173Z,20.60
2018-07-23T03:04:02.024Z,20.50
2018-07-23T03:06:29.805Z,20.50
2018-07-23T03:08:57.828Z,20.40
2018-07-23T03:11:26.003Z,20.30
2018-07-23T03:13:53.825Z,20.20
2018-07-23T03:16:21.678Z,20.10
2018-07-23T03:18:49.890Z,20.00
2018-07-23T03:21:17.683Z,19.90
2018-07-23T03:23:45.479Z,19.90
2018-07-23T03:26:13.313Z,19.70
2018-07-23T03:28:41.135Z,19.60
2018-07-23T03:31:08.943Z,19.50
2018-07-23T03:33:36.726Z,19.30
2018-07-23T03:36:04.593Z,19.30
2018-07-23T03:38:32.389Z,19.20
2018-07-23T03:41:00.194Z,19.10
2018-07-23T03:43:27.985Z,19.00
2018-07-23T03:45:55.755Z,18.90
2018-07-23T03:48:23.583Z,18.90
2018-07-23T03:50:51.354Z,18.60
2018-07-23T03:53:19.116Z,18.50
2018-07-23T03:55:46.865Z,18.30
2018-07-23T03:58:14.645Z,18.20
2018-07-23T04:00:42.398Z,18.00
2018-07-23T04:03:10.115Z,18.00
2018-07-23T04:05:37.896Z,18.00
2018-07-23T04:08:05.688Z,17.90
2018-07-23T04:10:34.539Z,17.90
2018-07-23T04:13:02.372Z,17.90
2018-07-23T04:15:55.186Z,17.90
2018-07-23T04:18:23.089Z,17.90
2018-07-23T04:20:50.921Z,17.90
2018-07-23T04:23:18.716Z,17.90
2018-07-23T04:25:46.524Z,17.90
2018-07-23T04:28:14.266Z,17.90
2018-07-23T04:30:42.110Z,18.00
2018-07-23T04:33:09.884Z,18.00
2018-07-23T04:35:38.661Z,18.10
2018-07-23T04:38:06.429Z,18.20
2018-07-23T04:40:34.216Z,18.40
2018-07-23T04:43:01.998Z,18.50
2018-07-23T04:45:33.309Z,18.60
2018-07-23T04:48:01.064Z,18.70
2018-07-23T04:50:29.419Z,18.80
2018-07-23T04:56:13.736Z,19.00
2018-07-23T04:58:41.658Z,19.30
2018-07-23T05:01:09.647Z,19.30
2018-07-23T05:03:37.716Z,19.50
2018-07-23T05:06:18.378Z,19.60
2018-07-23T05:08:46.288Z,19.80
2018-07-23T05:11:15.463Z,19.90
2018-07-23T05:13:43.421Z,20.10
2018-07-23T05:16:17.368Z,20.30
2018-07-23T05:18:45.317Z,20.40
2018-07-23T05:21:20.382Z,20.60
2018-07-23T05:23:48.271Z,20.80
2018-07-23T05:26:17.345Z,20.90
2018-07-23T05:28:45.202Z,21.10
2018-07-23T05:31:14.295Z,21.20
2018-07-23T05:33:42.263Z,21.30
2018-07-23T05:36:12.233Z,21.50
2018-07-23T05:38:40.270Z,21.60
2018-07-23T05:41:08.230Z,21.80
2018-07-23T05:43:36.206Z,21.90
2018-07-23T05:46:05.274Z,22.00
2018-07-23T05:48:33.211Z,22.10
2018-07-23T05:51:01.174Z,22.30
2018-07-23T05:53:29.057Z,22.40
2018-07-23T05:55:56.916Z,22.60
2018-07-23T05:58:24.821Z,22.70
2018-07-23T06:00:52.605Z,22.80
2018-07-23T06:03:21.544Z,22.60
2018-07-23T06:05:49.353Z,22.80
2018-07-23T06:08:17.350Z,22.90
2018-07-23T06:10:45.113Z,22.90
2018-07-23T06:13:14.088Z,23.00
2018-07-23T06:15:41.800Z,22.90
2018-07-23T06:18:09.787Z,23.00
2018-07-23T06:20:37.624Z,23.30
2018-07-23T06:23:05.556Z,23.50
2018-07-23T06:25:33.495Z,23.70
2018-07-23T06:28:01.372Z,23.80
2018-07-23T06:30:30.227Z,23.80
2018-07-23T06:32:58.027Z,23.80
2018-07-23T06:35:25.890Z,23.90
2018-07-23T06:37:53.711Z,24.10
2018-07-23T06:40:23.640Z,24.30
2018-07-23T06:42:51.626Z,24.40
2018-07-23T06:45:20.560Z,24.50
2018-07-23T06:47:48.419Z,24.40
2018-07-23T06:50:17.871Z,24.70
2018-07-23T06:52:45.765Z,24.80
2018-07-23T06:55:13.582Z,24.60
2018-07-23T06:57:47.952Z,25.00
2018-07-23T07:00:15.927Z,25.20
2018-07-23T07:02:43.881Z,25.20
2018-07-23T07:05:11.828Z,25.30
2018-07-23T07:07:39.893Z,25.80
2018-07-23T07:10:07.926Z,25.90
2018-07-23T07:12:52.767Z,25.80
2018-07-23T07:15:28.869Z,25.80
2018-07-23T07:17:56.656Z,25.80
2018-07-23T07:23:59.221Z,26.10
2018-07-23T07:26:27.040Z,26.60
2018-07-23T07:29:25.274Z,26.70
2018-07-23T07:31:53.066Z,26.60
2018-07-23T07:34:25.769Z,26.90
2018-07-23T07:36:53.612Z,27.10
2018-07-23T07:39:21.635Z,27.10
2018-07-23T07:41:49.460Z,26.90
2018-07-23T07:44:17.267Z,26.70
2018-07-23T07:46:46.277Z,27.00
2018-07-23T07:49:14.079Z,27.10
2018-07-23T07:51:42.026Z,27.40
2018-07-23T07:54:09.867Z,27.60
2018-07-23T07:56:37.993Z,27.60
2018-07-23T07:59:05.823Z,27.60
2018-07-23T08:01:33.916Z,27.70
2018-07-23T08:04:01.830Z,27.80
2018-07-23T08:06:31.891Z,28.00
2018-07-23T08:08:59.692Z,28.00
2018-07-23T08:15:02.309Z,28.20
2018-07-23T08:17:30.334Z,28.40
2018-07-23T08:20:01.227Z,28.80
2018-07-23T08:22:30.163Z,28.70
2018-07-23T08:25:24.852Z,28.70
2018-07-23T08:27:52.759Z,29.10
2018-07-23T08:30:20.641Z,29.00
2018-07-23T08:32:48.511Z,28.90
2018-07-23T08:35:16.572Z,29.20
2018-07-23T08:37:44.558Z,29.60
2018-07-23T08:40:12.504Z,29.60
2018-07-23T08:42:40.415Z,29.80
2018-07-23T08:45:08.327Z,29.60
2018-07-23T08:47:37.111Z,29.20
2018-07-23T08:50:05.289Z,29.70
2018-07-23T08:52:33.219Z,30.00
2018-07-23T08:55:01.133Z,30.20
2018-07-23T08:57:29.178Z,30.20
2018-07-23T08:59:57.004Z,30.30
2018-07-23T09:02:24.949Z,30.50
2018-07-23T09:04:52.767Z,30.70
2018-07-23T09:07:20.643Z,30.80
2018-07-23T09:09:48.623Z,31.10
2018-07-23T09:12:16.502Z,31.30
2018-07-23T09:14:44.420Z,30.90
2018-07-23T09:17:12.327Z,31.00
2018-07-23T09:19:40.220Z,31.20
2018-07-23T09:22:08.158Z,31.40
2018-07-23T09:24:36.156Z,31.20
2018-07-23T09:27:04.071Z,31.30
2018-07-23T09:29:36.451Z,31.50
2018-07-23T09:32:04.343Z,31.50
2018-07-23T09:34:32.204Z,31.30
2018-07-23T09:37:00.004Z,30.50
2018-07-23T09:39:27.826Z,31.00
2018-07-23T09:41:55.643Z,31.40
2018-07-23T09:44:23.509Z,31.40
2018-07-23T09:46:51.303Z,31.60
2018-07-23T09:49:19.050Z,31.60
2018-07-23T09:51:46.814Z,31.30
2018-07-23T09:54:15.598Z,31.60
2018-07-23T09:56:43.373Z,31.10
2018-07-23T09:59:11.404Z,31.30
2018-07-23T10:01:39.423Z,31.20
2018-07-23T10:04:07.225Z,31.00
2018-07-23T10:06:35.034Z,30.70
2018-07-23T10:09:02.963Z,30.80
2018-07-23T10:11:30.795Z,31.20
2018-07-23T10:13:58.600Z,31.50
2018-07-23T10:16:26.394Z,31.70
2018-07-23T10:18:54.155Z,31.90
2018-07-23T10:21:22.013Z,31.80
2018-07-23T10:23:49.775Z,31.90
2018-07-23T10:26:17.578Z,32.00
2018-07-23T10:28:45.348Z,32.00
2018-07-23T10:31:13.131Z,32.20
2018-07-23T10:33:40.877Z,32.00
2018-07-23T10:36:08.680Z,31.90
2018-07-23T10:38:36.503Z,32.10
2018-07-23T10:41:04.315Z,32.00
2018-07-23T10:43:32.131Z,32.10
2018-07-23T10:45:59.925Z,32.20
2018-07-23T10:48:36.006Z,32.10
2018-07-23T10:51:12.720Z,31.90
2018-07-23T10:53:40.603Z,32.10
2018-07-23T10:56:08.497Z,32.10
2018-07-23T10:58:36.415Z,31.90
2018-07-23T11:01:04.332Z,31.90
2018-07-23T11:03:32.207Z,32.00
2018-07-23T11:06:00.079Z,32.20
2018-07-23T11:08:27.963Z,32.60
2018-07-23T11:10:55.824Z,32.70
2018-07-23T11:13:23.680Z,32.80
2018-07-23T11:15:51.556Z,33.20
2018-07-23T11:18:19.501Z,33.30
2018-07-23T11:20:47.389Z,33.30
2018-07-23T11:23:15.298Z,33.00
2018-07-23T11:25:43.242Z,32.70
2018-07-23T11:28:11.195Z,32.60
2018-07-23T11:30:39.067Z,32.60
2018-07-23T11:33:06.974Z,32.70
2018-07-23T11:35:34.952Z,33.20
2018-07-23T11:38:02.873Z,33.50
2018-07-23T11:40:30.785Z,34.10
2018-07-23T11:42:58.752Z,34.00
2018-07-23T11:45:26.748Z,33.70
2018-07-23T11:47:54.654Z,33.60
2018-07-23T11:50:24.021Z,33.30
2018-07-23T11:52:51.909Z,32.80
2018-07-23T11:55:19.751Z,32.70
2018-07-23T11:57:47.584Z,33.10
2018-07-23T12:00:16.886Z,33.80
2018-07-23T12:02:45.101Z,33.80
2018-07-23T12:05:12.956Z,34.00
2018-07-23T12:07:40.810Z,34.50
2018-07-23T12:10:09.671Z,34.30
2018-07-23T12:12:37.549Z,35.00
2018-07-23T12:15:05.419Z,34.60
2018-07-23T12:17:33.365Z,34.30
2018-07-23T12:20:01.187Z,34.20
2018-07-23T12:22:28.937Z,34.90
2018-07-23T12:24:56.793Z,35.90
2018-07-23T12:27:39.228Z,36.00
2018-07-23T12:30:07.172Z,36.70
2018-07-23T12:32:34.989Z,36.50
2018-07-23T12:35:02.901Z,35.00
2018-07-23T12:37:30.818Z,34.00
2018-07-23T12:39:58.686Z,33.70
2018-07-23T12:42:26.544Z,33.40
2018-07-23T12:44:54.442Z,33.00
2018-07-23T12:47:22.376Z,32.50
2018-07-23T12:49:50.275Z,32.30
2018-07-23T12:52:18.230Z,31.80
2018-07-23T12:54:46.160Z,31.60
2018-07-23T12:57:13.975Z,32.30
2018-07-23T12:59:41.841Z,32.90
2018-07-23T13:02:09.757Z,33.00
2018-07-23T13:04:37.593Z,32.50
2018-07-23T13:07:05.415Z,32.60
2018-07-23T13:09:33.209Z,32.70
2018-07-23T13:12:01.093Z,32.80
2018-07-23T13:14:28.952Z,32.90
2018-07-23T13:16:56.826Z,32.70
2018-07-23T13:19:24.786Z,32.80
2018-07-23T13:21:52.914Z,32.60
2018-07-23T13:24:20.760Z,32.90
2018-07-23T13:26:48.568Z,33.00
2018-07-23T13:29:16.474Z,33.30
2018-07-23T13:31:44.379Z,33.70
2018-07-23T13:34:12.212Z,33.70
2018-07-23T13:36:40.045Z,33.50
2018-07-23T13:39:09.753Z,33.20
2018-07-23T13:41:37.557Z,33.20
2018-07-23T13:44:06.421Z,33.20
2018-07-23T13:46:34.331Z,33.10
2018-07-23T13:49:02.194Z,33.10
2018-07-23T13:51:30.047Z,33.20
2018-07-23T13:53:57.968Z,33.20
2018-07-23T13:56:25.805Z,33.30
2018-07-23T13:58:53.676Z,33.60
2018-07-23T14:01:21.549Z,33.30
2018-07-23T14:03:49.496Z,33.00
2018-07-23T14:06:17.309Z,33.10
2018-07-23T14:08:45.235Z,33.30
2018-07-23T14:11:13.137Z,33.20
2018-07-23T14:13:41.030Z,33.40
2018-07-23T14:16:09.006Z,33.20
2018-07-23T14:18:37.839Z,33.30
2018-07-23T14:21:05.817Z,33.80
2018-07-23T14:23:33.656Z,33.70
2018-07-23T14:26:01.677Z,33.20
2018-07-23T14:28:30.515Z,33.10
2018-07-23T14:30:58.408Z,33.00
2018-07-23T14:33:26.538Z,33.10
2018-07-23T14:35:54.684Z,33.10
2018-07-23T14:38:22.504Z,32.70
2018-07-23T14:40:50.369Z,32.40
2018-07-23T14:43:18.309Z,32.40
2018-07-23T14:45:46.177Z,32.50
2018-07-23T14:48:14.036Z,32.40
2018-07-23T14:50:43.050Z,32.50
2018-07-23T14:53:10.866Z,32.90
2018-07-23T14:55:38.774Z,32.70
2018-07-23T14:58:06.633Z,32.90
2018-07-23T15:00:34.632Z,32.80
2018-07-23T15:03:02.571Z,33.10
2018-07-23T15:05:31.468Z,33.30
2018-07-23T15:08:00.605Z,33.20
2018-07-23T15:10:28.456Z,33.20
2018-07-23T15:12:56.370Z,33.50
2018-07-23T15:15:45.383Z,33.30
2018-07-23T15:18:13.543Z,33.40
2018-07-23T15:20:41.438Z,33.10
2018-07-23T15:23:57.203Z,33.10
2018-07-23T15:26:25.129Z,33.40
2018-07-23T15:29:14.943Z,33.30
2018-07-23T15:31:42.896Z,33.50
2018-07-23T15:37:33.699Z,34.30
2018-07-23T15:40:45.719Z,33.40
2018-07-23T15:43:13.629Z,32.90
2018-07-23T15:45:42.718Z,33.00
2018-07-23T15:48:10.509Z,32.70
2018-07-23T15:50:43.911Z,32.60
2018-07-23T15:53:11.862Z,32.50
2018-07-23T15:55:44.393Z,32.70
2018-07-23T15:58:12.348Z,33.00
2018-07-23T16:01:07.327Z,33.50
2018-07-23T16:03:35.211Z,32.90
2018-07-23T16:06:09.031Z,32.90
2018-07-23T16:08:36.958Z,33.00
2018-07-23T16:11:27.773Z,33.10
2018-07-23T16:13:55.716Z,33.10
2018-07-23T16:17:00.048Z,32.90
2018-07-23T16:19:42.219Z,32.70
2018-07-23T16:22:10.212Z,32.50
2018-07-23T16:24:38.055Z,32.60
2018-07-23T16:27:05.957Z,32.60
2018-07-23T16:29:33.754Z,32.70
2018-07-23T16:32:01.682Z,32.90
2018-07-23T16:34:29.583Z,32.90
2018-07-23T16:36:59.488Z,32.80
2018-07-23T16:39:27.339Z,32.90
2018-07-23T16:41:55.294Z,32.60
2018-07-23T16:44:24.178Z,32.50
2018-07-23T16:46:52.068Z,32.60
2018-07-23T16:49:19.918Z,32.80
2018-07-23T16:51:47.872Z,32.80
2018-07-23T16:54:15.840Z,32.30
2018-07-23T16:56:43.833Z,31.90
2018-07-23T16:59:11.709Z,31.70
2018-07-23T17:01:39.596Z,31.50
2018-07-23T17:04:07.456Z,31.60
2018-07-23T17:06:35.398Z,31.50
2018-07-23T17:09:05.042Z,31.50
2018-07-23T17:11:32.968Z,31.40
2018-07-23T17:14:00.878Z,31.10
2018-07-23T17:16:28.756Z,31.10
2018-07-23T17:18:56.577Z,30.80
2018-07-23T17:21:24.403Z,30.20
2018-07-23T17:23:52.366Z,29.70
2018-07-23T17:26:20.237Z,29.30
2018-07-23T17:28:48.224Z,28.90
2018-07-23T17:31:17.132Z,28.60
2018-07-23T17:33:45.034Z,28.40
2018-07-23T17:36:12.988Z,28.30
2018-07-23T17:38:40.884Z,28.10
2018-07-23T17:41:13.242Z,28.00
2018-07-23T17:43:41.147Z,27.80
2018-07-23T17:46:17.751Z,27.70
2018-07-23T17:48:45.684Z,27.70
2018-07-23T17:51:41.896Z,27.60
2018-07-23T17:54:09.695Z,27.50
2018-07-23T17:57:08.291Z,27.40
2018-07-23T17:59:36.238Z,27.30
2018-07-23T18:02:04.275Z,27.20
2018-07-23T18:04:32.280Z,27.20
2018-07-23T18:07:11.487Z,27.20
2018-07-23T18:09:39.378Z,27.10
2018-07-23T18:12:34.486Z,27.10
2018-07-23T18:15:02.417Z,27.00
2018-07-23T18:17:33.658Z,27.10
2018-07-23T18:20:01.563Z,26.90
2018-07-23T18:22:34.767Z,26.80
2018-07-23T18:25:02.769Z,26.70
2018-07-23T18:27:31.628Z,26.50
2018-07-23T18:29:59.537Z,26.50
2018-07-23T18:32:27.474Z,26.50
2018-07-23T18:34:55.334Z,26.60
2018-07-23T18:37:23.216Z,26.50
2018-07-23T18:39:51.111Z,26.40
2018-07-23T18:42:18.995Z,26.20
2018-07-23T18:44:46.915Z,26.00
2018-07-23T18:47:14.874Z,26.00
2018-07-23T18:49:50.778Z,25.90
2018-07-23T18:52:19.391Z,25.80
2018-07-23T18:57:17.313Z,25.60
2018-07-23T18:59:45.281Z,25.50
2018-07-23T19:02:14.397Z,25.30
2018-07-23T19:04:42.374Z,25.20
2018-07-23T19:07:10.303Z,25.00
2018-07-23T19:09:38.186Z,24.90
2018-07-23T19:12:06.512Z,24.80
2018-07-23T19:14:34.412Z,24.70
2018-07-23T19:17:03.157Z,24.60
2018-07-23T19:19:31.065Z,24.50
2018-07-23T19:21:59.030Z,24.30
2018-07-23T19:24:26.977Z,24.20
2018-07-23T19:26:54.866Z,24.20
2018-07-23T19:29:22.814Z,24.00
2018-07-23T19:31:50.894Z,23.90
2018-07-23T19:34:18.833Z,23.80
2018-07-23T19:36:46.738Z,23.70
2018-07-23T19:39:15.811Z,23.60
2018-07-23T19:41:43.730Z,23.50
2018-07-23T19:44:11.855Z,23.40
2018-07-23T19:46:39.968Z,23.30
2018-07-23T19:49:07.867Z,23.20
2018-07-23T19:51:35.883Z,23.10
2018-07-23T19:54:03.917Z,23.00
2018-07-23T19:59:31.291Z,22.80
2018-07-23T20:01:59.104Z,22.70
2018-07-23T20:04:26.959Z,22.50
2018-07-23T20:06:54.836Z,22.40
2018-07-23T20:09:22.656Z,22.30
2018-07-23T20:11:51.518Z,22.20
2018-07-23T20:14:19.401Z,22.20
2018-07-23T20:16:48.244Z,22.10
2018-07-23T20:19:16.046Z,22.10
2018-07-23T20:21:46.324Z,22.10
2018-07-23T20:24:14.182Z,22.10
2018-07-23T20:26:42.033Z,22.00
2018-07-23T20:29:14.413Z,21.90
2018-07-23T20:31:42.227Z,21.80
2018-07-23T20:34:10.089Z,21.70
2018-07-23T20:36:38.160Z,21.60
2018-07-23T20:39:07.833Z,21.60
2018-07-23T20:41:35.859Z,21.50
2018-07-23T20:44:05.415Z,21.40
2018-07-23T20:46:33.306Z,21.40
2018-07-23T20:49:01.147Z,21.30
2018-07-23T20:52:12.445Z,21.30
2018-07-23T20:57:06.254Z,21.20
2018-07-23T20:59:34.213Z,21.10
2018-07-23T21:02:02.223Z,20.90
2018-07-23T21:04:30.216Z,20.80
2018-07-23T21:06:58.085Z,20.80
2018-07-23T21:09:25.883Z,20.70
2018-07-23T21:11:53.817Z,20.60
2018-07-23T21:14:22.743Z,20.50
2018-07-23T21:16:50.603Z,20.30
2018-07-23T21:19:18.599Z,20.20
2018-07-23T21:21:53.585Z,20.10
2018-07-23T21:24:21.561Z,20.00
2018-07-23T21:26:49.445Z,20.00
2018-07-23T21:29:17.322Z,19.90
2018-07-23T21:31:45.210Z,19.90
2018-07-23T21:34:13.009Z,19.80
2018-07-23T21:36:40.905Z,19.70
2018-07-23T21:39:09.619Z,19.70
2018-07-23T21:41:37.520Z,19.70
2018-07-23T21:44:05.358Z,19.70
2018-07-23T21:46:33.234Z,19.70
2018-07-23T21:49:01.117Z,19.80
2018-07-23T21:51:29.115Z,19.80
2018-07-23T21:53:56.994Z,19.90
2018-07-23T21:56:46.074Z,19.80
2018-07-23T21:59:26.782Z,19.80
2018-07-23T22:01:54.809Z,19.80
2018-07-23T22:04:22.814Z,19.60
2018-07-23T22:06:50.829Z,19.60
2018-07-23T22:09:18.716Z,19.60
2018-07-23T22:11:46.632Z,19.50
2018-07-23T22:14:14.711Z,19.40
2018-07-23T22:16:42.653Z,19.30
2018-07-23T22:19:10.759Z,19.20
2018-07-23T22:21:38.789Z,19.10
2018-07-23T22:24:06.708Z,19.00
2018-07-23T22:26:34.698Z,18.90
2018-07-23T22:29:02.785Z,18.90
2018-07-23T22:31:30.743Z,18.80
2018-07-23T22:33:58.728Z,18.80
2018-07-23T22:36:26.691Z,18.70
2018-07-23T22:38:54.677Z,18.60
2018-07-23T22:41:22.523Z,18.40
2018-07-23T22:43:50.458Z,18.40
2018-07-23T22:46:18.372Z,18.30
2018-07-23T22:48:46.299Z,18.50
2018-07-23T22:51:14.195Z,18.50
2018-07-23T22:53:42.132Z,18.40
2018-07-23T22:56:10.042Z,18.20
2018-07-23T22:58:38.076Z,18.20
2018-07-23T23:01:06.007Z,18.10
2018-07-23T23:03:33.907Z,18.10
2018-07-23T23:06:01.768Z,18.10
2018-07-23T23:08:29.708Z,18.00
2018-07-23T23:10:57.571Z,17.90
2018-07-23T23:13:25.487Z,18.00
2018-07-23T23:15:53.360Z,18.00
2018-07-23T23:18:21.186Z,18.10
2018-07-23T23:20:49.171Z,18.00
2018-07-23T23:23:17.002Z,17.80
2018-07-23T23:25:44.853Z,17.80
2018-07-23T23:28:12.717Z,17.80
2018-07-23T23:30:40.531Z,17.80
2018-07-23T23:33:08.378Z,17.70
2018-07-23T23:35:36.224Z,17.60
2018-07-23T23:38:04.088Z,17.50
2018-07-23T23:40:31.904Z,17.60
2018-07-23T23:42:59.736Z,17.60
2018-07-23T23:45:27.570Z,17.50
2018-07-23T23:47:55.394Z,17.40
2018-07-23T23:50:23.255Z,17.30
2018-07-23T23:52:51.100Z,17.30
2018-07-23T23:55:18.962Z,17.20
2018-07-23T23:58:27.968Z,17.20
